createdAt,value
2023-01-23T00:01:27.894Z,14.73
2023-01-23T00:03:55.974Z,13.68
2023-01-23T00:06:23.569Z,13.98
2023-01-23T00:08:51.205Z,14.20
2023-01-23T00:11:22.132Z,13.27
2023-01-23T00:13:49.825Z,13.52
2023-01-23T00:16:19.005Z,14.18
2023-01-23T00:18:46.629Z,14.20
2023-01-23T00:21:17.696Z,12.55
2023-01-23T00:23:50.788Z,12.88
2023-01-23T00:26:24.137Z,13.10
2023-01-23T00:28:51.497Z,13.63
2023-01-23T00:31:22.760Z,13.10
2023-01-23T00:33:55.412Z,14.20
2023-01-23T00:36:23.632Z,14.18
2023-01-23T00:38:50.349Z,14.05
2023-01-23T00:41:17.261Z,14.77
2023-01-23T00:43:44.983Z,14.63
2023-01-23T00:46:11.831Z,14.05
2023-01-23T00:48:39.967Z,14.45
2023-01-23T00:51:06.857Z,15.20
2023-01-23T00:53:33.658Z,14.32
2023-01-23T00:56:00.551Z,15.48
2023-01-23T00:58:27.278Z,15.30
2023-01-23T01:00:54.557Z,15.73
2023-01-23T01:03:28.721Z,15.85
2023-01-23T01:05:56.142Z,15.23
2023-01-23T01:08:27.672Z,15.45
2023-01-23T01:10:54.515Z,16.42
2023-01-23T01:13:23.733Z,16.42
2023-01-23T01:15:51.824Z,15.02
2023-01-23T01:18:22.616Z,16.17
2023-01-23T01:20:50.161Z,17.45
2023-01-23T01:23:17.059Z,18.02
2023-01-23T01:25:46.925Z,16.77
2023-01-23T01:28:14.585Z,17.33
2023-01-23T01:30:41.487Z,18.80
2023-01-23T01:33:08.829Z,17.38
2023-01-23T01:35:35.643Z,19.02
2023-01-23T01:38:02.722Z,18.70
2023-01-23T01:40:35.646Z,16.70
2023-01-23T01:43:09.170Z,17.40
2023-01-23T01:46:33.341Z,16.95
2023-01-23T01:49:17.231Z,18.23
2023-01-23T01:51:59.628Z,16.95
2023-01-23T01:54:35.395Z,18.92
2023-01-23T01:57:07.750Z,17.42
2023-01-23T01:59:46.681Z,18.13
2023-01-23T02:02:18.242Z,17.77
2023-01-23T02:04:55.388Z,17.35
2023-01-23T02:07:54.520Z,17.98
2023-01-23T02:10:22.359Z,17.67
2023-01-23T02:12:51.485Z,17.00
2023-01-23T02:15:21.408Z,17.07
2023-01-23T02:17:51.671Z,18.67
2023-01-23T02:20:23.473Z,17.05
2023-01-23T02:23:14.269Z,17.75
2023-01-23T02:25:45.736Z,17.75
2023-01-23T02:28:16.881Z,18.02
2023-01-23T02:30:50.700Z,17.13
2023-01-23T02:33:20.481Z,17.63
2023-01-23T02:35:47.731Z,16.48
2023-01-23T02:38:17.818Z,17.27
2023-01-23T02:40:44.606Z,16.30
2023-01-23T02:43:21.423Z,15.45
2023-01-23T02:45:56.010Z,13.47
2023-01-23T02:48:24.013Z,15.65
2023-01-23T02:50:50.946Z,16.00
2023-01-23T02:53:18.350Z,14.75
2023-01-23T02:55:45.141Z,15.50
2023-01-23T02:58:31.372Z,15.85
2023-01-23T03:00:58.279Z,15.27
2023-01-23T03:03:25.113Z,15.02
2023-01-23T03:05:54.364Z,16.52
2023-01-23T03:08:21.449Z,16.02
2023-01-23T03:10:48.266Z,16.13
2023-01-23T03:13:15.172Z,14.55
2023-01-23T03:15:43.250Z,14.90
2023-01-23T03:18:10.384Z,13.02
2023-01-23T03:20:41.832Z,11.52
2023-01-23T03:23:09.129Z,12.85
2023-01-23T03:25:35.911Z,12.45
2023-01-23T03:28:03.992Z,12.15
2023-01-23T03:30:30.955Z,11.00
2023-01-23T03:32:57.733Z,11.30
2023-01-23T03:35:24.561Z,11.60
2023-01-23T03:37:54.388Z,13.95
2023-01-23T03:40:44.017Z,12.23
2023-01-23T03:43:14.461Z,13.50
2023-01-23T03:45:47.275Z,11.38
2023-01-23T03:48:14.272Z,11.05
2023-01-23T03:50:43.713Z,10.50
2023-01-23T03:53:10.569Z,10.60
2023-01-23T03:55:37.682Z,10.13
2023-01-23T03:58:04.473Z,9.57
2023-01-23T04:00:32.195Z,10.15
2023-01-23T04:03:04.304Z,11.35
2023-01-23T04:05:31.615Z,10.32
2023-01-23T04:07:59.343Z,9.55
2023-01-23T04:10:26.519Z,8.82
2023-01-23T04:15:23.398Z,8.68
2023-01-23T04:17:52.056Z,9.43
2023-01-23T04:20:20.217Z,9.07
2023-01-23T04:22:47.316Z,9.10
2023-01-23T04:25:14.842Z,9.63
2023-01-23T04:27:41.772Z,9.95
2023-01-23T04:30:10.665Z,9.00
2023-01-23T04:32:37.398Z,9.65
2023-01-23T04:35:04.703Z,10.05
2023-01-23T04:37:32.093Z,9.95
2023-01-23T04:39:59.567Z,10.63
2023-01-23T04:42:26.465Z,9.57
2023-01-23T04:45:08.350Z,9.77
2023-01-23T04:47:47.437Z,11.15
2023-01-23T04:50:17.073Z,10.68
2023-01-23T04:52:46.072Z,10.82
2023-01-23T04:55:13.723Z,10.85
2023-01-23T04:57:42.707Z,10.65
2023-01-23T05:00:22.843Z,9.85
2023-01-23T05:02:50.760Z,9.80
2023-01-23T05:05:20.875Z,9.32
2023-01-23T05:07:51.043Z,9.45
2023-01-23T05:10:18.636Z,9.68
2023-01-23T05:12:46.440Z,10.02
2023-01-23T05:15:13.461Z,10.02
2023-01-23T05:17:41.825Z,12.25
2023-01-23T05:20:10.885Z,14.27
2023-01-23T05:22:52.112Z,13.43
2023-01-23T05:25:26.825Z,13.57
2023-01-23T05:27:55.862Z,10.63
2023-01-23T05:30:23.981Z,10.48
2023-01-23T05:32:54.970Z,10.77
2023-01-23T05:35:22.613Z,12.05
2023-01-23T05:37:53.277Z,10.70
2023-01-23T05:40:23.655Z,10.82
2023-01-23T05:43:23.171Z,10.93
2023-01-23T05:46:07.844Z,10.30
2023-01-23T05:48:53.003Z,11.25
2023-01-23T05:51:23.490Z,10.63
2023-01-23T05:53:51.422Z,11.20
2023-01-23T05:56:18.556Z,12.77
2023-01-23T05:59:23.767Z,11.77
2023-01-23T06:02:17.137Z,11.65
2023-01-23T06:05:02.536Z,12.13
2023-01-23T06:07:45.883Z,11.55
2023-01-23T06:10:13.553Z,11.20
2023-01-23T06:12:41.017Z,11.80
2023-01-23T06:15:08.294Z,12.15
2023-01-23T06:17:35.456Z,11.73
2023-01-23T06:20:02.609Z,12.93
2023-01-23T06:22:31.609Z,11.15
2023-01-23T06:25:10.294Z,12.18
2023-01-23T06:27:37.270Z,11.90
2023-01-23T06:30:08.305Z,12.90
2023-01-23T06:32:46.507Z,11.20
2023-01-23T06:35:17.425Z,11.80
2023-01-23T06:37:45.111Z,12.25
2023-01-23T06:40:15.860Z,12.95
2023-01-23T06:42:55.010Z,13.13
2023-01-23T06:45:22.699Z,12.90
2023-01-23T06:47:52.657Z,12.77
2023-01-23T06:50:20.074Z,12.90
2023-01-23T06:52:47.177Z,13.23
2023-01-23T06:55:14.739Z,14.40
2023-01-23T06:57:41.986Z,13.35
2023-01-23T07:00:10.799Z,13.23
2023-01-23T07:02:39.272Z,13.32
2023-01-23T07:05:06.360Z,12.20
2023-01-23T07:07:33.187Z,12.70
2023-01-23T07:10:00.055Z,14.18
2023-01-23T07:12:26.892Z,13.20
2023-01-23T07:14:53.663Z,12.70
2023-01-23T07:20:00.788Z,11.52
2023-01-23T07:22:27.545Z,12.05
2023-01-23T07:24:54.350Z,11.98
2023-01-23T07:27:21.105Z,12.68
2023-01-23T07:29:47.959Z,13.05
2023-01-23T07:32:14.713Z,14.65
2023-01-23T07:34:41.470Z,13.20
2023-01-23T07:37:08.299Z,12.55
2023-01-23T07:39:35.110Z,13.77
2023-01-23T07:42:01.853Z,15.18
2023-01-23T07:44:29.192Z,13.90
2023-01-23T07:46:56.945Z,14.27
2023-01-23T07:49:23.816Z,13.88
2023-01-23T07:51:50.538Z,13.95
2023-01-23T07:54:17.338Z,15.15
2023-01-23T07:56:44.111Z,15.30
2023-01-23T07:59:12.929Z,14.38
2023-01-23T08:01:39.761Z,15.63
2023-01-23T08:04:06.635Z,15.70
2023-01-23T08:06:34.493Z,15.50
2023-01-23T08:09:01.291Z,14.43
2023-01-23T08:11:28.057Z,14.73
2023-01-23T08:13:54.839Z,14.38
2023-01-23T08:16:21.691Z,14.45
2023-01-23T08:18:48.538Z,16.10
2023-01-23T08:21:15.457Z,14.52
2023-01-23T08:23:42.659Z,15.35
2023-01-23T08:26:11.491Z,16.10
2023-01-23T08:28:38.294Z,14.93
2023-01-23T08:31:07.712Z,15.93
2023-01-23T08:33:36.258Z,15.48
2023-01-23T08:36:05.144Z,16.27
2023-01-23T08:38:32.345Z,14.55
2023-01-23T08:41:01.432Z,14.23
2023-01-23T08:43:28.758Z,14.23
2023-01-23T08:45:57.400Z,14.40
2023-01-23T08:48:25.635Z,13.82
2023-01-23T08:50:58.288Z,14.85
2023-01-23T08:53:25.188Z,14.85
2023-01-23T08:55:51.899Z,15.70
2023-01-23T08:58:18.682Z,15.43
2023-01-23T09:00:45.473Z,15.55
2023-01-23T09:03:12.198Z,15.02
2023-01-23T09:05:39.020Z,15.15
2023-01-23T09:08:05.782Z,15.50
2023-01-23T09:10:32.540Z,15.52
2023-01-23T09:12:59.541Z,14.57
2023-01-23T09:15:26.600Z,15.55
2023-01-23T09:17:53.363Z,16.70
2023-01-23T09:20:20.619Z,15.35
2023-01-23T09:22:47.476Z,15.32
2023-01-23T09:25:14.474Z,16.38
2023-01-23T09:27:41.373Z,14.65
2023-01-23T09:30:08.734Z,15.13
2023-01-23T09:32:35.581Z,15.40
2023-01-23T09:35:02.371Z,15.18
2023-01-23T09:37:58.453Z,15.45
2023-01-23T09:40:29.067Z,15.60
2023-01-23T09:43:00.312Z,14.05
2023-01-23T09:45:28.100Z,14.48
2023-01-23T09:48:16.177Z,15.50
2023-01-23T09:50:54.517Z,14.68
2023-01-23T09:53:25.753Z,15.02
2023-01-23T09:56:21.818Z,13.90
2023-01-23T09:59:00.907Z,14.70
2023-01-23T10:01:33.149Z,13.90
2023-01-23T10:04:02.109Z,14.75
2023-01-23T10:07:04.612Z,15.13
2023-01-23T10:09:43.269Z,14.65
2023-01-23T10:12:25.049Z,14.27
2023-01-23T10:15:27.733Z,13.85
2023-01-23T10:18:33.135Z,14.45
2023-01-23T10:21:24.055Z,15.73
2023-01-23T10:24:09.131Z,15.23
2023-01-23T10:26:43.570Z,14.60
2023-01-23T10:29:24.090Z,15.00
2023-01-23T10:31:56.428Z,16.40
2023-01-23T10:34:37.811Z,16.60
2023-01-23T10:37:22.209Z,16.48
2023-01-23T10:39:55.018Z,15.98
2023-01-23T10:42:23.957Z,16.55
2023-01-23T10:44:51.056Z,15.18
2023-01-23T10:47:35.544Z,14.45
2023-01-23T10:50:04.467Z,15.50
2023-01-23T10:52:31.206Z,15.10
2023-01-23T10:54:58.126Z,15.18
2023-01-23T10:57:27.794Z,15.32
2023-01-23T11:00:04.128Z,15.90
2023-01-23T11:02:33.874Z,14.80
2023-01-23T11:05:01.423Z,14.65
2023-01-23T11:07:31.145Z,16.35
2023-01-23T11:10:01.566Z,16.25
2023-01-23T11:12:34.337Z,17.35
2023-01-23T11:15:23.343Z,16.90
2023-01-23T11:17:52.405Z,15.20
2023-01-23T11:20:27.558Z,15.68
2023-01-23T11:23:11.016Z,15.48
2023-01-23T11:25:39.449Z,16.08
2023-01-23T11:28:27.240Z,15.57
2023-01-23T11:31:12.428Z,14.98
2023-01-23T11:33:53.168Z,15.45
2023-01-23T11:36:20.049Z,16.45
2023-01-23T11:38:53.274Z,15.52
2023-01-23T11:41:31.455Z,15.63
2023-01-23T11:43:58.771Z,16.55
2023-01-23T11:47:01.974Z,16.65
2023-01-23T11:49:55.731Z,15.68
2023-01-23T11:52:36.911Z,15.63
2023-01-23T11:55:34.702Z,16.55
2023-01-23T11:58:22.258Z,18.20
2023-01-23T12:01:12.315Z,15.32
2023-01-23T12:06:50.225Z,34.15
2023-01-23T12:09:21.818Z,58.35
2023-01-23T12:12:19.495Z,34.33
2023-01-23T12:15:11.106Z,15.88
2023-01-23T12:17:47.106Z,77.40
2023-01-23T12:20:30.491Z,22.00
2023-01-23T12:23:19.006Z,24.05
2023-01-23T12:25:54.549Z,21.95
2023-01-23T12:29:18.869Z,22.55
2023-01-23T12:32:12.186Z,18.23
2023-01-23T12:35:03.712Z,17.50
2023-01-23T12:37:39.835Z,18.52
2023-01-23T12:40:14.225Z,17.17
2023-01-23T12:42:49.444Z,16.92
2023-01-23T12:45:24.380Z,17.55
2023-01-23T12:48:06.729Z,16.02
2023-01-23T12:50:53.686Z,15.43
2023-01-23T12:53:25.210Z,16.15
2023-01-23T12:56:02.011Z,16.45
2023-01-23T12:58:32.285Z,16.25
2023-01-23T13:01:15.965Z,15.80
2023-01-23T13:03:47.023Z,14.23
2023-01-23T13:06:41.300Z,15.57
2023-01-23T13:09:22.902Z,15.27
2023-01-23T13:12:16.419Z,15.30
2023-01-23T13:15:06.479Z,15.82
2023-01-23T13:17:51.858Z,15.07
2023-01-23T13:20:40.495Z,14.90
2023-01-23T13:23:22.493Z,16.10
2023-01-23T13:25:50.621Z,15.65
2023-01-23T13:28:43.984Z,16.25
2023-01-23T13:31:35.821Z,15.90
2023-01-23T13:34:24.764Z,15.20
2023-01-23T13:36:53.233Z,15.40
2023-01-23T13:39:28.951Z,16.10
2023-01-23T13:42:14.230Z,15.70
2023-01-23T13:45:18.321Z,15.52
2023-01-23T14:25:01.979Z,14.43
2023-01-23T14:27:36.744Z,14.68
2023-01-23T14:30:16.017Z,15.25
2023-01-23T14:32:44.397Z,15.10
2023-01-23T14:35:28.103Z,20.30
2023-01-23T14:37:59.275Z,16.52
2023-01-23T14:40:29.787Z,14.90
2023-01-23T14:43:03.831Z,15.18
2023-01-23T14:45:33.558Z,15.90
2023-01-23T14:48:06.363Z,14.57
2023-01-23T14:50:34.344Z,13.55
2023-01-23T14:53:04.539Z,15.68
2023-01-23T14:55:38.983Z,15.80
2023-01-23T14:58:07.460Z,14.80
2023-01-23T15:00:35.849Z,14.38
2023-01-23T15:03:04.593Z,14.07
2023-01-23T15:05:32.900Z,14.07
2023-01-23T15:08:07.413Z,15.48
2023-01-23T15:10:46.837Z,15.07
2023-01-23T15:13:25.685Z,16.20
2023-01-23T15:16:02.349Z,16.50
2023-01-23T15:18:31.402Z,15.63
2023-01-23T15:21:05.929Z,18.75
2023-01-23T15:23:37.209Z,18.48
2023-01-23T15:26:32.502Z,17.70
2023-01-23T15:29:17.351Z,16.15
2023-01-23T15:31:50.715Z,16.88
2023-01-23T15:34:27.898Z,16.75
2023-01-23T15:36:56.814Z,15.57
2023-01-23T15:39:37.069Z,15.48
2023-01-23T15:42:28.832Z,15.55
2023-01-23T15:44:55.859Z,15.70
2023-01-23T15:47:22.629Z,15.00
2023-01-23T15:49:49.463Z,15.07
2023-01-23T15:52:25.114Z,14.40
2023-01-23T15:54:55.228Z,14.48
2023-01-23T15:59:48.887Z,17.20
2023-01-23T16:02:30.622Z,18.65
2023-01-23T16:04:58.719Z,21.48
2023-01-23T16:07:31.325Z,21.13
2023-01-23T16:09:58.324Z,23.70
2023-01-23T16:12:29.286Z,25.30
2023-01-23T16:14:57.408Z,27.63
2023-01-23T16:17:24.433Z,26.20
2023-01-23T16:19:51.536Z,26.83
2023-01-23T16:22:26.197Z,23.65
2023-01-23T16:24:53.479Z,23.90
2023-01-23T16:27:27.483Z,22.77
2023-01-23T16:29:55.553Z,23.63
2023-01-23T16:32:22.896Z,20.48
2023-01-23T16:34:49.944Z,18.55
2023-01-23T16:37:18.759Z,18.65
2023-01-23T16:39:46.998Z,17.98
2023-01-23T16:42:20.513Z,18.70
2023-01-23T16:44:47.430Z,19.23
2023-01-23T16:47:14.194Z,19.05
2023-01-23T16:49:51.379Z,19.67
2023-01-23T16:52:20.423Z,20.35
2023-01-23T16:54:47.626Z,22.95
2023-01-23T16:57:19.818Z,22.25
2023-01-23T16:59:48.321Z,21.65
2023-01-23T17:02:27.291Z,20.02
2023-01-23T17:04:54.599Z,21.45
2023-01-23T17:07:21.375Z,19.80
2023-01-23T17:09:49.363Z,21.80
2023-01-23T17:12:27.587Z,20.50
2023-01-23T17:14:56.019Z,20.95
2023-01-23T17:17:32.926Z,21.15
2023-01-23T17:20:01.784Z,19.10
2023-01-23T17:22:34.028Z,18.70
2023-01-23T17:25:00.828Z,16.83
2023-01-23T17:27:27.590Z,17.15
2023-01-23T17:29:54.318Z,16.95
2023-01-23T17:32:31.293Z,16.80
2023-01-23T17:35:02.742Z,16.58
2023-01-23T17:37:30.659Z,18.25
2023-01-23T17:39:58.599Z,16.55
2023-01-23T17:42:25.440Z,17.23
2023-01-23T17:44:52.235Z,15.75
2023-01-23T17:47:19.408Z,16.67
2023-01-23T17:49:51.654Z,16.65
2023-01-23T17:52:20.307Z,16.73
2023-01-23T17:54:47.530Z,16.88
2023-01-23T17:57:15.146Z,21.02
2023-01-23T17:59:42.041Z,22.13
2023-01-23T18:02:20.783Z,19.92
2023-01-23T18:04:47.595Z,37.15
2023-01-23T18:07:15.059Z,23.70
2023-01-23T18:09:41.817Z,26.20
2023-01-23T18:12:16.569Z,21.75
2023-01-23T18:14:58.291Z,20.77
2023-01-23T18:17:43.853Z,23.00
2023-01-23T18:20:22.377Z,21.15
2023-01-23T18:22:50.057Z,18.88
2023-01-23T18:25:19.262Z,20.10
2023-01-23T18:27:50.647Z,18.73
2023-01-23T18:30:37.865Z,19.92
2023-01-23T18:33:29.366Z,19.27
2023-01-23T18:35:57.064Z,18.30
2023-01-23T18:38:42.334Z,18.65
2023-01-23T18:41:21.395Z,19.08
2023-01-23T18:43:54.378Z,19.27
2023-01-23T18:46:24.013Z,29.13
2023-01-23T18:48:51.171Z,34.30
2023-01-23T18:51:20.998Z,28.23
2023-01-23T18:54:24.775Z,26.55
2023-01-23T18:57:13.074Z,29.45
2023-01-23T18:59:52.018Z,31.17
2023-01-23T19:02:35.937Z,25.55
2023-01-23T19:05:13.883Z,24.67
2023-01-23T19:07:41.523Z,23.58
2023-01-23T19:10:14.834Z,24.15
2023-01-23T19:12:47.768Z,22.15
2023-01-23T19:15:52.198Z,22.52
2023-01-23T19:18:41.100Z,24.42
2023-01-23T19:21:27.334Z,24.40
2023-01-23T19:24:09.964Z,23.77
2023-01-23T19:26:39.628Z,22.13
2023-01-23T19:29:21.034Z,22.63
2023-01-23T19:32:06.144Z,24.95
2023-01-23T19:34:34.353Z,26.20
2023-01-23T19:37:01.388Z,23.48
2023-01-23T19:39:28.143Z,24.50
2023-01-23T19:41:54.958Z,25.95
2023-01-23T19:44:24.352Z,23.75
2023-01-23T19:46:52.400Z,26.45
2023-01-23T19:49:19.426Z,25.98
2023-01-23T19:51:46.531Z,26.13
2023-01-23T19:54:16.597Z,26.10
2023-01-23T19:59:10.028Z,34.78
2023-01-23T20:01:48.445Z,38.17
2023-01-23T20:04:17.984Z,44.03
2023-01-23T20:06:49.098Z,39.53
2023-01-23T20:09:16.225Z,36.00
2023-01-23T20:11:44.106Z,35.22
2023-01-23T20:14:11.977Z,34.17
2023-01-23T20:16:41.047Z,29.80
2023-01-23T20:19:08.325Z,31.30
2023-01-23T20:21:35.294Z,26.75
2023-01-23T20:24:02.130Z,27.00
2023-01-23T20:26:28.902Z,25.73
2023-01-23T20:28:55.707Z,24.75
2023-01-23T20:31:23.164Z,24.38
2023-01-23T20:33:50.544Z,25.15
2023-01-23T20:36:17.431Z,24.13
2023-01-23T20:38:44.596Z,24.48
2023-01-23T20:41:18.713Z,24.88
2023-01-23T20:43:46.290Z,23.95
2023-01-23T20:46:15.662Z,23.02
2023-01-23T20:48:44.325Z,25.95
2023-01-23T20:51:12.429Z,22.48
2023-01-23T20:53:40.089Z,21.95
2023-01-23T20:56:13.714Z,23.50
2023-01-23T20:59:01.565Z,22.52
2023-01-23T21:01:30.981Z,22.55
2023-01-23T21:03:57.855Z,23.80
2023-01-23T21:06:24.586Z,21.63
2023-01-23T21:08:51.301Z,23.85
2023-01-23T21:11:20.078Z,22.05
2023-01-23T21:13:51.581Z,23.08
2023-01-23T21:16:20.738Z,22.45
2023-01-23T21:18:47.727Z,22.27
2023-01-23T21:21:20.160Z,22.83
2023-01-23T21:23:49.338Z,22.58
2023-01-23T21:26:18.400Z,23.03
2023-01-23T21:28:47.172Z,27.05
2023-01-23T21:31:20.313Z,22.65
2023-01-23T21:33:47.607Z,23.00
2023-01-23T21:36:17.523Z,22.00
2023-01-23T21:41:12.249Z,21.27
2023-01-23T21:43:39.239Z,22.10
2023-01-23T21:46:06.508Z,20.80
2023-01-23T21:48:33.818Z,20.25
2023-01-23T21:51:21.252Z,21.40
2023-01-23T21:53:50.265Z,21.50
2023-01-23T21:56:19.295Z,20.20
2023-01-23T21:58:47.267Z,20.50
2023-01-23T22:01:41.348Z,20.38
2023-01-23T22:04:12.979Z,20.20
2023-01-23T22:06:42.591Z,20.80
2023-01-23T22:09:13.845Z,19.83
2023-01-23T22:11:40.861Z,19.75
2023-01-23T22:14:07.658Z,21.10
2023-01-23T22:16:50.872Z,19.33
2023-01-23T22:19:25.623Z,20.63
2023-01-23T22:21:57.184Z,19.08
2023-01-23T22:24:24.438Z,20.60
2023-01-23T22:26:51.849Z,20.85
2023-01-23T22:29:18.796Z,20.52
2023-01-23T22:31:45.629Z,21.35
2023-01-23T22:34:12.508Z,19.83
2023-01-23T22:36:39.296Z,20.15
2023-01-23T22:39:06.402Z,21.52
2023-01-23T22:41:33.300Z,18.73
2023-01-23T22:44:00.047Z,20.52
2023-01-23T22:46:28.089Z,20.52
2023-01-23T22:48:54.937Z,20.77
2023-01-23T22:51:25.470Z,23.08
2023-01-23T22:53:53.453Z,22.67
2023-01-23T22:56:20.597Z,22.73
2023-01-23T22:58:49.120Z,21.67
2023-01-23T23:01:16.587Z,22.73
2023-01-23T23:03:44.138Z,22.15
2023-01-23T23:06:13.880Z,23.48
2023-01-23T23:08:41.522Z,23.48
2023-01-23T23:11:10.061Z,23.40
2023-01-23T23:13:38.465Z,24.67
2023-01-23T23:16:15.158Z,23.08
2023-01-23T23:18:42.100Z,21.75
2023-01-23T23:21:11.497Z,21.77
2023-01-23T23:23:39.235Z,21.88
2023-01-23T23:26:07.640Z,22.52
2023-01-23T23:28:35.353Z,23.02
2023-01-23T23:31:02.200Z,22.83
2023-01-23T23:33:29.105Z,26.15
2023-01-23T23:35:56.056Z,25.23
2023-01-23T23:38:22.950Z,25.77
2023-01-23T23:41:00.229Z,26.42
2023-01-23T23:43:28.569Z,25.48
2023-01-23T23:45:59.825Z,25.17
2023-01-23T23:48:28.013Z,25.35
2023-01-23T23:50:55.109Z,24.00
2023-01-23T23:53:22.552Z,25.35
2023-01-23T23:55:51.711Z,24.52
2023-01-23T23:58:18.572Z,24.80
